FQPB

Pemba Airport

Pemba / Porto Amelia, Mozambique
METAR FQPB 192100Z 32003KT 9999 FEW020 BKN/// 26/23 Q1015
Observed Flight Rules
Nov-19 @ 21:00 UTC (an hour ago) Visual Flight Rules
Wind Visibility Clouds
320° at 3 knots 10,000+ meters
  • Few at 2,000' AGL
Temperatures Readings
Current 26°C / 79°F
Dewpoint 23°C / 73°F
Humidity 84%
Altimeter 29.97" Hg
Pressure 1015 hPa
Elevation 50
METAR FQPB 192100Z 32003KT 9999 FEW020 BKN/// 26/23 Q1015
Observed Flight Rules
Nov-19 @ 21:00 UTC
(an hour ago)
VFR
Wind Visibility
320° at 3 knots 10,000+ meters
Clouds
  • Few at 2,000' AGL
Temperature Dewpoint
26°C / 79°F 23°C / 73°F
Humidity Altimeter Pressure
84% 29.97" Hg 1015 hPa